createdAt,value
2017-10-31T00:00:59.809Z,10.13
2017-10-31T00:03:27.284Z,13.38
2017-10-31T00:05:54.840Z,10.48
2017-10-31T00:08:22.335Z,8.15
2017-10-31T00:10:50.590Z,14.52
2017-10-31T00:13:18.074Z,12.68
2017-10-31T00:15:46.419Z,9.10
2017-10-31T00:18:13.907Z,15.23
2017-10-31T00:20:42.147Z,11.32
2017-10-31T00:23:09.622Z,12.43
2017-10-31T00:25:37.099Z,13.38
2017-10-31T00:28:05.380Z,7.97
2017-10-31T00:30:33.647Z,12.15
2017-10-31T00:33:01.917Z,16.33
2017-10-31T00:35:30.169Z,12.20
2017-10-31T00:37:57.637Z,15.88
2017-10-31T00:40:25.104Z,12.18
2017-10-31T00:42:52.591Z,12.70
2017-10-31T00:45:20.070Z,13.52
2017-10-31T00:47:47.575Z,8.00
2017-10-31T00:50:15.081Z,11.27
2017-10-31T00:52:42.551Z,12.68
2017-10-31T00:55:10.027Z,11.25
2017-10-31T00:57:37.523Z,10.20
2017-10-31T01:00:05.755Z,10.23
2017-10-31T01:02:33.216Z,12.55
2017-10-31T01:05:00.700Z,12.25
2017-10-31T01:07:28.170Z,9.25
2017-10-31T01:09:56.427Z,10.65
2017-10-31T01:12:23.915Z,12.70
2017-10-31T01:14:52.160Z,10.95
2017-10-31T01:17:19.627Z,10.88
2017-10-31T01:19:47.131Z,10.25
2017-10-31T01:22:14.600Z,15.07
2017-10-31T01:24:42.143Z,7.25
2017-10-31T01:27:09.673Z,11.52
2017-10-31T01:29:37.934Z,14.60
2017-10-31T01:32:05.453Z,10.20
2017-10-31T01:34:32.917Z,15.32
2017-10-31T01:37:00.428Z,12.10
2017-10-31T01:39:27.972Z,11.63
2017-10-31T01:41:55.449Z,11.70
2017-10-31T01:44:22.912Z,10.25
2017-10-31T01:46:51.159Z,12.10
2017-10-31T01:49:18.618Z,7.70
2017-10-31T01:51:46.091Z,7.53
2017-10-31T01:54:13.592Z,11.57
2017-10-31T01:56:41.043Z,7.80
2017-10-31T01:59:08.519Z,11.63
2017-10-31T02:01:35.982Z,10.57
2017-10-31T02:04:03.483Z,9.20
2017-10-31T02:06:30.952Z,15.07
2017-10-31T02:08:59.187Z,10.52
2017-10-31T02:11:26.656Z,10.30
2017-10-31T02:13:54.155Z,10.10
2017-10-31T02:16:22.388Z,10.80
2017-10-31T02:18:49.844Z,11.12
2017-10-31T02:21:17.340Z,18.37
2017-10-31T02:23:45.591Z,11.57
2017-10-31T02:26:13.102Z,19.77
2017-10-31T02:28:40.568Z,14.93
2017-10-31T02:31:08.054Z,10.43
2017-10-31T02:33:35.579Z,12.95
2017-10-31T02:36:03.049Z,13.30
2017-10-31T02:38:55.418Z,23.75
2017-10-31T02:41:22.871Z,6.75
2017-10-31T02:43:50.364Z,14.77
2017-10-31T02:46:18.591Z,8.43
2017-10-31T02:48:46.077Z,9.52
2017-10-31T02:51:13.567Z,10.95
2017-10-31T02:53:41.807Z,10.30
2017-10-31T02:56:09.293Z,16.90
2017-10-31T02:58:37.538Z,14.50
2017-10-31T03:01:05.016Z,10.60
2017-10-31T03:03:32.485Z,14.45
2017-10-31T03:06:00.711Z,12.45
2017-10-31T03:08:28.197Z,10.13
2017-10-31T03:10:55.674Z,12.13
2017-10-31T03:13:23.167Z,12.63
2017-10-31T03:15:50.628Z,8.93
2017-10-31T03:18:18.098Z,12.27
2017-10-31T03:20:45.567Z,11.02
2017-10-31T03:23:13.067Z,11.55
2017-10-31T03:25:41.295Z,10.48
2017-10-31T03:28:08.768Z,13.45
2017-10-31T03:30:36.281Z,15.57
2017-10-31T03:33:03.755Z,12.27
2017-10-31T03:35:31.251Z,12.25
2017-10-31T03:37:58.725Z,7.72
2017-10-31T03:40:26.232Z,11.85
2017-10-31T03:42:53.714Z,11.77
2017-10-31T03:45:21.175Z,14.13
2017-10-31T03:47:48.667Z,11.05
2017-10-31T03:50:16.911Z,18.52
2017-10-31T03:52:44.395Z,17.67
2017-10-31T03:55:11.861Z,14.43
2017-10-31T03:57:39.344Z,16.23
2017-10-31T04:00:06.828Z,8.52
2017-10-31T04:02:34.292Z,11.85
2017-10-31T04:05:01.763Z,10.45
2017-10-31T04:07:29.231Z,13.70
2017-10-31T04:09:56.734Z,12.30
2017-10-31T04:12:24.481Z,11.52
2017-10-31T04:14:52.707Z,13.32
2017-10-31T04:17:20.205Z,13.27
2017-10-31T04:19:47.670Z,21.55
2017-10-31T04:22:15.899Z,12.82
2017-10-31T04:24:43.370Z,18.12
2017-10-31T04:27:10.891Z,13.80
2017-10-31T04:29:38.444Z,14.82
2017-10-31T04:32:05.904Z,14.27
2017-10-31T04:34:33.400Z,16.58
2017-10-31T04:37:00.872Z,23.73
2017-10-31T04:39:28.341Z,17.58
2017-10-31T04:41:55.830Z,14.55
2017-10-31T04:44:24.097Z,13.80
2017-10-31T04:46:52.338Z,18.60
2017-10-31T04:49:19.808Z,12.63
2017-10-31T04:51:47.289Z,15.30
2017-10-31T04:54:15.542Z,20.30
2017-10-31T04:56:43.016Z,14.87
2017-10-31T04:59:10.512Z,8.85
2017-10-31T05:01:37.986Z,14.13
2017-10-31T05:04:05.476Z,14.48
2017-10-31T05:06:32.969Z,10.13
2017-10-31T05:09:01.189Z,14.73
2017-10-31T05:11:28.701Z,12.40
2017-10-31T05:13:56.926Z,18.08
2017-10-31T05:16:24.396Z,11.75
2017-10-31T05:18:51.895Z,10.23
2017-10-31T05:21:20.140Z,16.67
2017-10-31T05:23:47.614Z,18.12
2017-10-31T05:26:15.097Z,22.30
2017-10-31T05:28:42.689Z,20.48
2017-10-31T05:31:10.154Z,14.35
2017-10-31T05:33:37.627Z,20.30
2017-10-31T05:36:05.124Z,13.75
2017-10-31T05:38:33.343Z,10.57
2017-10-31T05:41:00.832Z,13.55
2017-10-31T05:43:28.370Z,18.33
2017-10-31T05:45:55.849Z,20.62
2017-10-31T05:48:23.331Z,22.35
2017-10-31T05:50:51.586Z,25.33
2017-10-31T05:53:19.061Z,22.80
2017-10-31T05:55:47.299Z,25.10
2017-10-31T05:58:14.779Z,20.17
2017-10-31T06:00:43.013Z,36.33
2017-10-31T06:03:10.507Z,25.83
2017-10-31T06:05:37.984Z,21.70
2017-10-31T06:08:06.212Z,19.50
2017-10-31T06:10:33.703Z,19.35
2017-10-31T06:13:01.168Z,24.63
2017-10-31T06:15:28.644Z,19.50
2017-10-31T06:17:56.882Z,36.17
2017-10-31T06:20:24.378Z,31.58
2017-10-31T06:22:58.329Z,32.22
2017-10-31T06:25:31.536Z,19.87
2017-10-31T06:28:04.733Z,24.02
2017-10-31T06:30:37.971Z,33.90
2017-10-31T06:33:06.235Z,26.20
2017-10-31T06:35:34.506Z,41.35
2017-10-31T06:38:02.008Z,77.40
2017-10-31T06:40:29.481Z,49.65
2017-10-31T06:42:56.992Z,54.13
2017-10-31T06:45:25.259Z,55.90
2017-10-31T06:47:52.741Z,37.70
2017-10-31T06:50:20.990Z,56.25
2017-10-31T06:52:48.447Z,44.08
2017-10-31T06:55:15.958Z,47.22
2017-10-31T06:57:43.451Z,32.90
2017-10-31T07:00:10.956Z,28.08
2017-10-31T07:02:38.440Z,31.27
2017-10-31T07:05:05.919Z,24.10
2017-10-31T07:07:33.416Z,27.87
2017-10-31T07:10:01.680Z,27.52
2017-10-31T07:12:29.151Z,39.67
2017-10-31T07:14:57.421Z,39.75
2017-10-31T07:17:24.880Z,40.35
2017-10-31T07:19:53.168Z,34.25
2017-10-31T07:22:21.409Z,24.42
2017-10-31T07:24:48.911Z,31.12
2017-10-31T07:27:17.146Z,31.80
2017-10-31T07:29:44.623Z,33.80
2017-10-31T07:32:12.113Z,27.35
2017-10-31T07:34:39.573Z,33.33
2017-10-31T07:37:07.068Z,32.65
2017-10-31T07:39:34.532Z,28.62
2017-10-31T07:42:02.030Z,20.23
2017-10-31T07:44:30.283Z,23.38
2017-10-31T07:46:57.781Z,18.70
2017-10-31T07:49:25.264Z,21.20
2017-10-31T07:51:52.763Z,20.58
2017-10-31T07:54:20.247Z,17.92
2017-10-31T07:56:48.468Z,20.12
2017-10-31T07:59:15.973Z,30.92
2017-10-31T08:01:43.454Z,21.83
2017-10-31T08:04:10.923Z,24.00
2017-10-31T08:06:38.403Z,19.95
2017-10-31T08:09:05.892Z,27.73
2017-10-31T08:11:33.375Z,21.67
2017-10-31T08:14:00.870Z,23.58
2017-10-31T08:16:28.332Z,32.70
2017-10-31T08:18:55.823Z,31.35
2017-10-31T08:21:23.311Z,27.83
2017-10-31T08:23:51.579Z,26.25
2017-10-31T08:26:19.808Z,28.48
2017-10-31T08:28:47.288Z,26.20
2017-10-31T08:31:14.792Z,22.08
2017-10-31T08:33:42.260Z,33.05
2017-10-31T08:36:09.771Z,23.80
2017-10-31T08:38:37.261Z,31.67
2017-10-31T08:41:05.542Z,26.30
2017-10-31T08:43:33.011Z,21.87
2017-10-31T08:46:00.484Z,23.83
2017-10-31T08:48:27.965Z,30.80
2017-10-31T08:50:55.443Z,25.30
2017-10-31T08:53:22.942Z,31.60
2017-10-31T08:55:50.433Z,28.87
2017-10-31T08:58:17.933Z,27.30
2017-10-31T09:00:46.177Z,34.63
2017-10-31T09:03:13.675Z,31.08
2017-10-31T09:05:41.931Z,36.95
2017-10-31T09:08:09.420Z,32.55
2017-10-31T09:10:36.947Z,28.83
2017-10-31T09:13:04.431Z,38.53
2017-10-31T09:15:32.687Z,34.97
2017-10-31T09:18:00.918Z,26.40
2017-10-31T09:20:28.501Z,29.75
2017-10-31T09:22:55.998Z,36.55
2017-10-31T09:25:24.254Z,29.00
2017-10-31T09:27:51.743Z,31.42
2017-10-31T09:30:19.229Z,31.27
2017-10-31T09:32:46.726Z,33.25
2017-10-31T09:35:14.943Z,31.55
2017-10-31T09:37:42.441Z,29.83
2017-10-31T09:40:09.938Z,32.97
2017-10-31T09:42:38.203Z,25.62
2017-10-31T09:45:05.678Z,34.03
2017-10-31T09:47:33.211Z,27.95
2017-10-31T09:50:00.702Z,24.25
2017-10-31T09:52:28.940Z,23.38
2017-10-31T09:54:56.930Z,23.25
2017-10-31T09:57:25.168Z,35.88
2017-10-31T09:59:52.670Z,15.65
2017-10-31T10:02:20.947Z,16.15
2017-10-31T10:04:49.280Z,17.27
2017-10-31T10:07:16.766Z,18.65
2017-10-31T10:09:44.238Z,33.22
2017-10-31T10:12:12.476Z,24.40
2017-10-31T10:14:39.969Z,14.90
2017-10-31T10:17:07.468Z,19.02
2017-10-31T10:19:34.971Z,21.67
2017-10-31T10:22:02.453Z,31.33
2017-10-31T10:24:30.708Z,22.35
2017-10-31T10:26:58.222Z,12.18
2017-10-31T10:29:25.697Z,14.32
2017-10-31T10:31:53.198Z,21.42
2017-10-31T10:34:20.681Z,18.87
2017-10-31T10:36:48.263Z,20.20
2017-10-31T10:39:15.718Z,16.58
2017-10-31T10:41:43.224Z,18.37
2017-10-31T10:44:10.695Z,15.30
2017-10-31T10:46:38.950Z,17.75
2017-10-31T10:49:06.447Z,14.52
2017-10-31T11:17:24.748Z,11.23
2017-10-31T11:19:52.256Z,12.00
2017-10-31T11:22:19.729Z,7.43
2017-10-31T11:24:47.220Z,10.87
2017-10-31T11:27:14.731Z,21.35
2017-10-31T11:29:42.231Z,21.48
2017-10-31T11:32:09.720Z,19.35
2017-10-31T11:34:37.980Z,11.40
2017-10-31T11:37:05.514Z,9.95
2017-10-31T11:39:32.995Z,19.80
2017-10-31T11:42:00.474Z,9.85
2017-10-31T11:44:28.703Z,17.85
2017-10-31T11:46:56.176Z,14.10
2017-10-31T11:49:23.666Z,12.23
2017-10-31T11:51:51.140Z,13.70
2017-10-31T11:54:18.644Z,11.65
2017-10-31T11:56:46.180Z,16.10
2017-10-31T11:59:13.666Z,8.60
2017-10-31T12:01:41.178Z,16.58
2017-10-31T12:04:08.669Z,23.95
2017-10-31T12:06:36.164Z,14.45
2017-10-31T12:09:04.423Z,18.12
2017-10-31T12:11:32.007Z,15.10
2017-10-31T12:14:00.255Z,21.42
2017-10-31T12:16:29.260Z,14.50
2017-10-31T12:18:56.788Z,10.43
2017-10-31T12:21:24.256Z,15.70
2017-10-31T12:23:51.782Z,19.48
2017-10-31T12:26:19.270Z,11.75
2017-10-31T12:28:46.772Z,16.52
2017-10-31T12:31:15.039Z,19.87
2017-10-31T12:33:42.505Z,25.77
2017-10-31T12:36:10.797Z,16.25
2017-10-31T12:38:38.298Z,13.93
2017-10-31T12:41:05.763Z,16.73
2017-10-31T12:43:33.278Z,9.07
2017-10-31T12:46:01.519Z,22.55
2017-10-31T12:48:29.031Z,14.23
2017-10-31T12:51:00.384Z,14.57
2017-10-31T12:53:27.998Z,16.05
2017-10-31T12:55:55.463Z,15.77
2017-10-31T12:58:23.730Z,25.67
2017-10-31T13:00:51.188Z,18.10
2017-10-31T13:03:18.647Z,12.10
2017-10-31T13:05:46.939Z,13.57
2017-10-31T13:08:15.209Z,14.35
2017-10-31T13:10:43.492Z,21.20
2017-10-31T13:13:11.724Z,13.32
2017-10-31T13:15:39.227Z,16.45
2017-10-31T13:18:07.489Z,15.40
2017-10-31T13:20:34.958Z,11.75
2017-10-31T13:23:03.231Z,18.33
2017-10-31T13:25:31.580Z,14.65
2017-10-31T13:27:59.128Z,9.65
2017-10-31T13:30:27.409Z,21.45
2017-10-31T13:32:55.749Z,12.65
2017-10-31T13:35:24.253Z,10.98
2017-10-31T13:37:52.608Z,8.82
2017-10-31T13:40:21.195Z,14.60
2017-10-31T13:42:49.492Z,13.05
2017-10-31T13:45:17.015Z,6.30
2017-10-31T13:47:46.171Z,15.85
2017-10-31T13:50:14.519Z,18.30
2017-10-31T13:52:41.998Z,13.15
2017-10-31T13:55:09.504Z,18.27
2017-10-31T13:57:37.763Z,39.63
2017-10-31T14:00:06.008Z,11.98
2017-10-31T14:02:34.353Z,17.15
2017-10-31T14:05:02.767Z,88.37
2017-10-31T14:07:30.429Z,15.68
2017-10-31T14:09:58.790Z,8.60
2017-10-31T14:12:27.178Z,12.45
2017-10-31T14:14:54.656Z,12.05
2017-10-31T14:17:22.177Z,24.08
2017-10-31T14:19:50.148Z,9.85
2017-10-31T14:22:17.602Z,10.35
2017-10-31T14:24:45.103Z,11.02
2017-10-31T14:27:12.608Z,8.40
2017-10-31T14:29:40.881Z,14.38
2017-10-31T14:32:09.128Z,16.15
2017-10-31T14:34:36.631Z,17.08
2017-10-31T14:37:04.130Z,15.85
2017-10-31T14:39:31.627Z,14.98
2017-10-31T14:41:59.895Z,13.73
2017-10-31T14:44:27.356Z,10.75
2017-10-31T14:46:54.830Z,16.20
2017-10-31T14:49:22.297Z,10.65
2017-10-31T14:51:49.797Z,12.30
2017-10-31T14:54:17.302Z,7.60
2017-10-31T14:56:44.784Z,9.50
2017-10-31T14:59:12.276Z,7.97
2017-10-31T15:01:39.754Z,9.15
2017-10-31T15:04:07.999Z,10.00
2017-10-31T15:06:35.459Z,12.30
2017-10-31T15:09:03.005Z,15.38
2017-10-31T15:11:30.476Z,13.45
2017-10-31T15:13:57.998Z,17.92
2017-10-31T15:16:25.520Z,14.77
2017-10-31T15:18:53.043Z,13.75
2017-10-31T15:21:20.783Z,16.27
2017-10-31T15:23:49.036Z,11.55
2017-10-31T15:26:17.304Z,19.15
2017-10-31T15:28:44.813Z,22.42
2017-10-31T15:31:12.331Z,51.50
2017-10-31T15:33:39.813Z,28.70
2017-10-31T15:36:07.313Z,12.40
2017-10-31T15:38:34.865Z,25.50
2017-10-31T15:41:02.349Z,16.30
2017-10-31T15:43:29.839Z,21.60
2017-10-31T15:45:58.103Z,26.37
2017-10-31T15:48:25.609Z,36.80
2017-10-31T15:50:53.108Z,39.65
2017-10-31T15:53:20.624Z,38.17
2017-10-31T15:55:48.110Z,23.50
2017-10-31T15:58:15.586Z,23.30
2017-10-31T16:00:43.089Z,19.58
2017-10-31T16:03:10.555Z,13.43
2017-10-31T16:05:38.055Z,15.20
2017-10-31T16:08:05.569Z,16.85
2017-10-31T16:10:33.040Z,41.75
2017-10-31T16:13:00.549Z,26.27
2017-10-31T16:15:28.023Z,26.42
2017-10-31T16:17:56.273Z,22.15
2017-10-31T16:20:23.748Z,26.20
2017-10-31T16:22:52.038Z,29.37
2017-10-31T16:25:20.292Z,30.85
2017-10-31T16:27:47.769Z,30.52
2017-10-31T16:30:16.048Z,42.40
2017-10-31T16:32:44.326Z,33.40
2017-10-31T16:35:12.587Z,33.35
2017-10-31T16:37:40.819Z,37.22
2017-10-31T16:40:08.316Z,44.00
2017-10-31T16:42:35.835Z,24.10
2017-10-31T16:45:03.308Z,32.80
2017-10-31T16:47:30.800Z,22.98
2017-10-31T16:49:58.286Z,20.98
2017-10-31T16:52:25.734Z,17.85
2017-10-31T16:54:53.232Z,25.35
2017-10-31T16:57:20.715Z,30.40
2017-10-31T16:59:48.223Z,20.92
2017-10-31T17:02:15.715Z,10.95
2017-10-31T17:04:43.184Z,11.38
2017-10-31T17:07:10.696Z,9.80
2017-10-31T17:09:38.165Z,11.43
2017-10-31T17:12:05.678Z,19.30
2017-10-31T17:14:33.142Z,17.85
2017-10-31T17:17:01.413Z,17.75
2017-10-31T17:19:28.868Z,12.48
2017-10-31T17:21:56.365Z,12.90
2017-10-31T17:24:23.873Z,12.90
2017-10-31T17:26:51.334Z,19.15
2017-10-31T17:29:18.834Z,23.08
2017-10-31T17:31:46.312Z,25.90
2017-10-31T17:34:13.787Z,24.00
2017-10-31T17:36:41.300Z,36.53
2017-10-31T17:39:09.525Z,31.40
2017-10-31T17:41:37.028Z,35.13
2017-10-31T17:44:05.273Z,29.37
2017-10-31T17:46:32.799Z,30.08
2017-10-31T17:49:00.281Z,19.17
2017-10-31T17:51:27.731Z,24.87
2017-10-31T17:53:55.233Z,22.45
2017-10-31T17:56:22.699Z,24.05
2017-10-31T17:58:50.952Z,19.42
2017-10-31T18:01:18.444Z,15.65
2017-10-31T18:03:46.689Z,18.42
2017-10-31T18:06:14.179Z,29.98
2017-10-31T18:08:42.428Z,18.15
2017-10-31T18:11:09.915Z,17.45
2017-10-31T18:13:37.405Z,18.37
2017-10-31T18:16:04.919Z,19.67
2017-10-31T18:18:33.144Z,22.90
2017-10-31T18:21:00.612Z,49.00
2017-10-31T18:23:28.145Z,67.65
2017-10-31T18:25:55.626Z,43.87
2017-10-31T18:28:23.114Z,48.80
2017-10-31T18:30:50.591Z,34.45
2017-10-31T18:33:18.855Z,40.22
2017-10-31T18:35:46.355Z,54.70
2017-10-31T18:38:13.859Z,45.33
2017-10-31T18:40:41.349Z,104.18
2017-10-31T18:43:09.584Z,63.70
2017-10-31T18:45:37.100Z,58.83
2017-10-31T18:48:04.559Z,48.72
2017-10-31T18:50:32.835Z,59.88
2017-10-31T18:53:00.333Z,62.62
2017-10-31T18:55:27.821Z,49.47
2017-10-31T18:57:55.300Z,56.63
2017-10-31T19:00:22.796Z,27.17
2017-10-31T19:02:50.281Z,20.88
2017-10-31T19:05:17.771Z,23.15
2017-10-31T19:07:46.002Z,36.97
2017-10-31T19:10:13.495Z,59.05
2017-10-31T19:12:41.769Z,49.05
2017-10-31T19:15:09.257Z,42.97
2017-10-31T19:17:36.773Z,30.35
2017-10-31T19:20:04.259Z,48.30
2017-10-31T19:22:32.498Z,43.33
2017-10-31T19:25:00.010Z,35.63
2017-10-31T19:27:27.496Z,30.75
2017-10-31T19:29:54.997Z,24.50
2017-10-31T19:32:23.268Z,29.20
2017-10-31T19:34:50.736Z,20.67
2017-10-31T19:37:18.984Z,18.42
2017-10-31T19:39:46.507Z,17.33
2017-10-31T19:42:13.982Z,16.73
2017-10-31T19:44:41.471Z,22.65
2017-10-31T19:47:08.983Z,23.77
2017-10-31T19:49:36.446Z,26.70
2017-10-31T19:52:03.932Z,23.23
2017-10-31T19:54:31.394Z,26.77
2017-10-31T19:56:58.890Z,19.77
2017-10-31T19:59:27.182Z,33.38
2017-10-31T20:01:54.682Z,23.67
2017-10-31T20:04:22.144Z,22.25
2017-10-31T20:06:49.680Z,29.35
2017-10-31T20:09:17.146Z,25.75
2017-10-31T20:11:44.638Z,18.85
2017-10-31T20:14:12.880Z,20.55
2017-10-31T20:16:40.383Z,16.65
2017-10-31T20:19:10.861Z,15.30
2017-10-31T20:21:39.174Z,20.70
2017-10-31T20:24:06.661Z,21.50
2017-10-31T20:26:34.920Z,20.88
2017-10-31T20:29:02.421Z,23.08
2017-10-31T20:31:29.910Z,19.85
2017-10-31T20:33:57.402Z,25.73
2017-10-31T20:36:24.876Z,29.48
2017-10-31T20:38:53.119Z,28.20
2017-10-31T20:41:20.616Z,20.02
2017-10-31T20:43:48.101Z,22.58
2017-10-31T20:46:15.603Z,26.45
2017-10-31T20:48:43.075Z,24.25
2017-10-31T20:51:11.327Z,24.73
2017-10-31T20:53:38.911Z,34.92
2017-10-31T20:56:07.071Z,25.62
2017-10-31T20:58:34.565Z,22.05
2017-10-31T21:01:02.078Z,25.88
2017-10-31T21:03:29.608Z,22.70
2017-10-31T21:05:57.080Z,21.27
2017-10-31T21:08:24.604Z,19.62
2017-10-31T21:10:52.090Z,21.02
2017-10-31T21:13:19.576Z,27.35
2017-10-31T21:15:48.576Z,24.33
2017-10-31T21:18:16.039Z,24.98
2017-10-31T21:20:44.603Z,24.15
2017-10-31T21:23:12.077Z,20.65
2017-10-31T21:25:40.325Z,18.23
2017-10-31T21:28:07.818Z,21.60
2017-10-31T21:30:35.293Z,22.92
2017-10-31T21:33:03.548Z,23.83
2017-10-31T21:35:31.050Z,20.45
2017-10-31T21:37:58.514Z,19.55
2017-10-31T21:40:26.015Z,20.40
2017-10-31T21:42:53.483Z,20.35
2017-10-31T21:45:20.940Z,25.60
2017-10-31T21:47:48.437Z,21.35
2017-10-31T21:50:15.937Z,19.90
2017-10-31T21:52:43.424Z,26.10
2017-10-31T21:55:10.922Z,26.30
2017-10-31T21:57:38.410Z,18.08
2017-10-31T22:00:05.883Z,21.65
2017-10-31T22:02:33.364Z,22.52
2017-10-31T22:05:01.594Z,20.27
2017-10-31T22:07:29.107Z,27.50
2017-10-31T22:09:57.336Z,19.42
2017-10-31T22:12:24.807Z,19.30
2017-10-31T22:14:52.295Z,16.00
2017-10-31T22:17:20.527Z,23.77
2017-10-31T22:19:48.029Z,20.23
2017-10-31T22:22:17.384Z,19.95
2017-10-31T22:24:44.886Z,21.05
2017-10-31T22:27:13.128Z,20.75
2017-10-31T22:29:40.646Z,34.28
2017-10-31T22:32:08.134Z,22.37
2017-10-31T22:34:35.607Z,17.50
2017-10-31T22:37:03.121Z,25.12
2017-10-31T22:39:30.608Z,22.10
2017-10-31T22:41:58.105Z,18.62
2017-10-31T22:44:25.629Z,21.98
2017-10-31T22:46:53.149Z,20.73
2017-10-31T22:49:21.372Z,24.58
2017-10-31T22:51:48.899Z,24.60
2017-10-31T22:54:16.384Z,24.48
2017-10-31T22:56:43.899Z,20.02
2017-10-31T22:59:11.376Z,20.20
2017-10-31T23:01:38.901Z,16.67
2017-10-31T23:04:06.363Z,23.27
2017-10-31T23:06:34.592Z,21.05
2017-10-31T23:09:02.100Z,23.48
2017-10-31T23:11:30.327Z,21.80
2017-10-31T23:13:57.844Z,16.90
2017-10-31T23:16:26.096Z,21.08
2017-10-31T23:18:53.567Z,28.05
2017-10-31T23:21:22.007Z,17.00
2017-10-31T23:23:49.492Z,19.20
2017-10-31T23:26:16.967Z,22.20
2017-10-31T23:28:45.202Z,22.70
2017-10-31T23:31:12.700Z,20.85
2017-10-31T23:33:40.941Z,16.98
2017-10-31T23:36:08.430Z,21.10
2017-10-31T23:38:35.887Z,18.37
2017-10-31T23:41:03.391Z,21.08
2017-10-31T23:43:30.864Z,17.35
2017-10-31T23:45:58.347Z,26.27
2017-10-31T23:48:25.828Z,17.17
2017-10-31T23:50:54.087Z,16.55
2017-10-31T23:53:21.551Z,9.02
2017-10-31T23:55:49.004Z,9.30
2017-10-31T23:58:16.475Z,12.10
